KVNY/VNY METAR and TAF weather

Enter ICAO airport designator
Station Type Date Time Source
KVNY METAR 2020/07/11 23:51 UTC NOAA

KVNY 112351Z 09007KT 020V240 10SM CLR 41/03 A2991 RMK AO2 SLP115 T04060033 10411 20333 56016


Station Type Date Time Source
KVNY Decoded METAR 2020/07/11 23:51 UTC NOAA

VAN NUYS AIRPORT, CA, United States (KVNY) 34-13N 118-29W 245M
Jul 11, 2020 - 07:51 PM EDT / 2020.07.11 2351 UTC
Wind: from the E (090 degrees) at 8 MPH (7 KT) (direction variable):0
Visibility: 10 mile(s):0
Sky conditions: clear
Temperature: 105.1 F (40.6 C)
Dew Point: 37.9 F (3.3 C)
Relative Humidity: 10%
Pressure (altimeter): 29.91 in. Hg (1012 hPa)
Pressure tendency: 0.05 inches (1.6 hPa) lower than three hours ago
ob: KVNY 112351Z 09007KT 020V240 10SM CLR 41/03 A2991 RMK AO2 SLP115 T04060033 10411 20333 56016
cycle: 0

Station Type Date Time Source
KVNY TAF 2020/07/12 00:00 UTC NOAA

KVNY 112356Z 1200/1224 28008KT P6SM SKC
FM120400 VRB03KT P6SM SKC
FM122100 15009KT P6SM SKC

Example: see airport list